sensor_id;sensor_type;location;lat;lon;timestamp;pressure;altitude;pressure_sealevel;temperature;humidity
73516;BME280;61763;51.416;5.442;2023-05-17T00:01:18;102410.44;;;4.88;100.00
73516;BME280;61763;51.416;5.442;2023-05-17T00:03:45;102415.78;;;4.83;100.00
73516;BME280;61763;51.416;5.442;2023-05-17T00:06:10;102421.16;;;4.80;100.00
73516;BME280;61763;51.416;5.442;2023-05-17T00:08:35;102419.34;;;4.76;100.00
73516;BME280;61763;51.416;5.442;2023-05-17T00:14:38;102416.69;;;4.68;100.00
73516;BME280;61763;51.416;5.442;2023-05-17T00:17:03;102422.94;;;4.67;100.00
73516;BME280;61763;51.416;5.442;2023-05-17T00:19:29;102425.59;;;4.64;100.00
73516;BME280;61763;51.416;5.442;2023-05-17T00:21:54;102424.72;;;4.67;100.00
73516;BME280;61763;51.416;5.442;2023-05-17T00:24:20;102426.47;;;4.71;100.00
73516;BME280;61763;51.416;5.442;2023-05-17T00:26:45;102414.03;;;4.68;100.00
73516;BME280;61763;51.416;5.442;2023-05-17T00:29:10;102422.03;;;4.70;100.00
73516;BME280;61763;51.416;5.442;2023-05-17T00:31:36;102413.97;;;4.93;100.00
73516;BME280;61763;51.416;5.442;2023-05-17T00:34:01;102417.53;;;5.04;100.00
73516;BME280;61763;51.416;5.442;2023-05-17T00:36:26;102420.19;;;5.09;100.00
73516;BME280;61763;51.416;5.442;2023-05-17T00:38:52;102421.06;;;5.05;100.00
73516;BME280;61763;51.416;5.442;2023-05-17T00:41:17;102422.00;;;5.02;100.00
73516;BME280;61763;51.416;5.442;2023-05-17T00:43:42;102414.88;;;4.98;100.00
73516;BME280;61763;51.416;5.442;2023-05-17T00:46:08;102414.88;;;4.97;100.00
73516;BME280;61763;51.416;5.442;2023-05-17T00:48:33;102414.00;;;4.96;100.00
73516;BME280;61763;51.416;5.442;2023-05-17T00:50:58;102410.41;;;4.93;100.00
73516;BME280;61763;51.416;5.442;2023-05-17T00:53:24;102421.09;;;5.00;100.00
73516;BME280;61763;51.416;5.442;2023-05-17T00:55:50;102421.97;;;5.12;100.00
73516;BME280;61763;51.416;5.442;2023-05-17T00:58:16;102424.66;;;5.08;100.00
73516;BME280;61763;51.416;5.442;2023-05-17T01:00:41;102422.88;;;5.03;100.00
73516;BME280;61763;51.416;5.442;2023-05-17T01:03:07;102424.66;;;4.91;100.00
73516;BME280;61763;51.416;5.442;2023-05-17T01:05:32;102424.69;;;4.82;100.00
73516;BME280;61763;51.416;5.442;2023-05-17T01:07:58;102429.19;;;4.77;100.00
73516;BME280;61763;51.416;5.442;2023-05-17T01:10:34;102421.13;;;4.71;100.00
73516;BME280;61763;51.416;5.442;2023-05-17T01:13:17;102417.59;;;4.61;100.00
73516;BME280;61763;51.416;5.442;2023-05-17T01:18:52;102411.34;;;4.48;100.00
73516;BME280;61763;51.416;5.442;2023-05-17T01:21:34;102408.66;;;4.44;100.00
73516;BME280;61763;51.416;5.442;2023-05-17T01:24:27;102422.03;;;4.45;100.00
73516;BME280;61763;51.416;5.442;2023-05-17T01:26:55;102420.25;;;4.43;100.00
73516;BME280;61763;51.416;5.442;2023-05-17T01:29:23;102416.69;;;4.41;100.00
73516;BME280;61763;51.416;5.442;2023-05-17T01:31:50;102417.56;;;4.38;100.00
73516;BME280;61763;51.416;5.442;2023-05-17T01:34:26;102409.56;;;4.35;100.00
73516;BME280;61763;51.416;5.442;2023-05-17T01:36:51;102406.00;;;4.33;100.00
73516;BME280;61763;51.416;5.442;2023-05-17T01:39:17;102409.56;;;4.27;100.00
73516;BME280;61763;51.416;5.442;2023-05-17T01:41:59;102417.56;;;4.26;100.00
73516;BME280;61763;51.416;5.442;2023-05-17T01:44:39;102422.91;;;4.29;100.00
73516;BME280;61763;51.416;5.442;2023-05-17T01:47:14;102422.91;;;4.36;100.00
73516;BME280;61763;51.416;5.442;2023-05-17T01:49:46;102410.44;;;4.40;100.00
73516;BME280;61763;51.416;5.442;2023-05-17T01:52:44;102414.03;;;4.36;100.00
73516;BME280;61763;51.416;5.442;2023-05-17T01:55:44;102414.91;;;4.29;100.00
73516;BME280;61763;51.416;5.442;2023-05-17T01:58:13;102416.66;;;4.22;100.00
73516;BME280;61763;51.416;5.442;2023-05-17T02:00:42;102414.88;;;4.15;100.00
73516;BME280;61763;51.416;5.442;2023-05-17T02:03:16;102419.34;;;4.08;100.00
73516;BME280;61763;51.416;5.442;2023-05-17T02:05:42;102419.31;;;4.03;100.00
73516;BME280;61763;51.416;5.442;2023-05-17T02:08:07;102417.53;;;4.01;100.00
73516;BME280;61763;51.416;5.442;2023-05-17T02:10:33;102418.41;;;3.97;100.00
73516;BME280;61763;51.416;5.442;2023-05-17T02:39:53;102435.31;;;3.90;100.00
73516;BME280;61763;51.416;5.442;2023-05-17T02:42:18;102439.78;;;3.95;100.00
73516;BME280;61763;51.416;5.442;2023-05-17T02:44:44;102435.31;;;3.97;100.00
73516;BME280;61763;51.416;5.442;2023-05-17T02:47:09;102432.66;;;3.97;100.00
73516;BME280;61763;51.416;5.442;2023-05-17T02:49:34;102432.66;;;3.97;100.00
73516;BME280;61763;51.416;5.442;2023-05-17T02:52:00;102429.09;;;3.94;100.00
73516;BME280;61763;51.416;5.442;2023-05-17T02:54:26;102439.78;;;3.95;100.00
73516;BME280;61763;51.416;5.442;2023-05-17T02:56:51;102449.59;;;3.96;100.00
73516;BME280;61763;51.416;5.442;2023-05-17T02:59:17;102453.13;;;3.94;100.00
73516;BME280;61763;51.416;5.442;2023-05-17T03:01:42;102454.91;;;3.93;100.00
73516;BME280;61763;51.416;5.442;2023-05-17T03:04:07;102463.81;;;3.95;100.00
73516;BME280;61763;51.416;5.442;2023-05-17T03:06:33;102465.63;;;4.01;100.00
73516;BME280;61763;51.416;5.442;2023-05-17T03:08:58;102448.72;;;4.14;100.00
73516;BME280;61763;51.416;5.442;2023-05-17T03:11:24;102463.91;;;4.31;100.00
73516;BME280;61763;51.416;5.442;2023-05-17T03:13:49;102458.59;;;4.45;100.00
73516;BME280;61763;51.416;5.442;2023-05-17T03:16:16;102453.22;;;4.60;100.00
73516;BME280;61763;51.416;5.442;2023-05-17T03:18:41;102454.13;;;4.71;100.00
73516;BME280;61763;51.416;5.442;2023-05-17T03:21:07;102463.03;;;4.78;100.00
73516;BME280;61763;51.416;5.442;2023-05-17T03:23:32;102462.13;;;4.88;100.00
73516;BME280;61763;51.416;5.442;2023-05-17T03:25:57;102459.47;;;4.98;100.00
73516;BME280;61763;51.416;5.442;2023-05-17T03:28:23;102471.03;;;5.07;100.00
73516;BME280;61763;51.416;5.442;2023-05-17T03:30:48;102470.13;;;5.19;100.00
73516;BME280;61763;51.416;5.442;2023-05-17T03:33:14;102466.53;;;5.28;100.00
73516;BME280;61763;51.416;5.442;2023-05-17T03:35:39;102466.50;;;5.37;100.00
73516;BME280;61763;51.416;5.442;2023-05-17T03:38:04;102470.06;;;5.44;100.00
73516;BME280;61763;51.416;5.442;2023-05-17T03:40:30;102468.28;;;5.52;100.00
73516;BME280;61763;51.416;5.442;2023-05-17T03:42:55;102481.63;;;5.58;100.00
73516;BME280;61763;51.416;5.442;2023-05-17T03:45:21;102478.06;;;5.63;100.00
73516;BME280;61763;51.416;5.442;2023-05-17T03:47:47;102475.31;;;5.75;100.00
73516;BME280;61763;51.416;5.442;2023-05-17T03:50:12;102478.84;;;5.78;100.00
73516;BME280;61763;51.416;5.442;2023-05-17T03:52:37;102476.19;;;5.85;100.00
73516;BME280;61763;51.416;5.442;2023-05-17T03:55:06;102478.81;;;5.92;100.00
73516;BME280;61763;51.416;5.442;2023-05-17T03:57:32;102478.81;;;6.00;100.00
73516;BME280;61763;51.416;5.442;2023-05-17T03:59:57;102475.22;;;6.06;100.00
73516;BME280;61763;51.416;5.442;2023-05-17T04:02:23;102483.22;;;6.12;100.00
73516;BME280;61763;51.416;5.442;2023-05-17T04:04:49;102476.03;;;6.20;100.00
73516;BME280;61763;51.416;5.442;2023-05-17T04:07:15;102476.84;;;6.27;100.00
73516;BME280;61763;51.416;5.442;2023-05-17T04:09:41;102482.19;;;6.35;100.00
73516;BME280;61763;51.416;5.442;2023-05-17T04:12:06;102480.38;;;6.38;100.00
73516;BME280;61763;51.416;5.442;2023-05-17T04:14:33;102486.63;;;6.43;100.00
73516;BME280;61763;51.416;5.442;2023-05-17T04:16:58;102483.88;;;6.51;100.00
73516;BME280;61763;51.416;5.442;2023-05-17T04:19:24;102489.22;;;6.54;100.00
73516;BME280;61763;51.416;5.442;2023-05-17T04:21:49;102502.59;;;6.57;100.00
73516;BME280;61763;51.416;5.442;2023-05-17T04:24:16;102502.53;;;6.66;100.00
73516;BME280;61763;51.416;5.442;2023-05-17T04:26:41;102496.31;;;6.63;100.00
73516;BME280;61763;51.416;5.442;2023-05-17T04:29:07;102502.56;;;6.62;100.00
73516;BME280;61763;51.416;5.442;2023-05-17T04:31:33;102503.50;;;6.55;100.00
73516;BME280;61763;51.416;5.442;2023-05-17T04:33:58;102499.97;;;6.49;100.00
73516;BME280;61763;51.416;5.442;2023-05-17T04:36:23;102500.00;;;6.46;100.00
73516;BME280;61763;51.416;5.442;2023-05-17T04:38:49;102509.78;;;6.52;100.00
73516;BME280;61763;51.416;5.442;2023-05-17T04:41:14;102515.16;;;6.54;100.00
73516;BME280;61763;51.416;5.442;2023-05-17T04:43:40;102516.91;;;6.55;100.00
73516;BME280;61763;51.416;5.442;2023-05-17T04:46:06;102519.56;;;6.58;100.00
73516;BME280;61763;51.416;5.442;2023-05-17T04:48:31;102515.06;;;6.63;100.00
73516;BME280;61763;51.416;5.442;2023-05-17T04:51:00;102522.22;;;6.67;100.00
73516;BME280;61763;51.416;5.442;2023-05-17T04:53:26;102526.66;;;6.66;100.00
73516;BME280;61763;51.416;5.442;2023-05-17T04:55:51;102528.41;;;6.74;100.00
73516;BME280;61763;51.416;5.442;2023-05-17T04:58:17;102534.66;;;6.79;100.00
73516;BME280;61763;51.416;5.442;2023-05-17T05:00:42;102534.56;;;6.87;100.00
73516;BME280;61763;51.416;5.442;2023-05-17T05:03:08;102530.91;;;6.98;100.00
73516;BME280;61763;51.416;5.442;2023-05-17T05:05:33;102540.66;;;7.09;100.00
73516;BME280;61763;51.416;5.442;2023-05-17T05:07:59;102528.97;;;7.16;100.00
73516;BME280;61763;51.416;5.442;2023-05-17T05:10:25;102543.19;;;7.24;100.00
73516;BME280;61763;51.416;5.442;2023-05-17T05:12:52;102544.03;;;7.31;100.00
73516;BME280;61763;51.416;5.442;2023-05-17T05:15:17;102555.63;;;7.39;100.00
73516;BME280;61763;51.416;5.442;2023-05-17T05:17:43;102552.84;;;7.47;100.00
73516;BME280;61763;51.416;5.442;2023-05-17T05:20:08;102547.34;;;7.58;100.00
73516;BME280;61763;51.416;5.442;2023-05-17T05:22:34;102550.84;;;7.66;100.00
73516;BME280;61763;51.416;5.442;2023-05-17T05:25:00;102554.28;;;7.77;100.00
73516;BME280;61763;51.416;5.442;2023-05-17T05:27:25;102555.91;;;7.94;100.00
73516;BME280;61763;51.416;5.442;2023-05-17T05:29:53;102555.78;;;8.04;100.00
73516;BME280;61763;51.416;5.442;2023-05-17T05:32:18;102556.50;;;8.19;100.00
73516;BME280;61763;51.416;5.442;2023-05-17T05:34:44;102560.78;;;8.34;100.00
73516;BME280;61763;51.416;5.442;2023-05-17T05:37:09;102561.53;;;8.48;100.00
73516;BME280;61763;51.416;5.442;2023-05-17T05:39:34;102557.59;;;8.71;100.00
73516;BME280;61763;51.416;5.442;2023-05-17T05:42:00;102561.84;;;8.86;100.00
73516;BME280;61763;51.416;5.442;2023-05-17T05:44:25;102559.81;;;9.02;100.00
73516;BME280;61763;51.416;5.442;2023-05-17T05:46:50;102565.88;;;9.15;100.00
73516;BME280;61763;51.416;5.442;2023-05-17T05:49:16;102561.19;;;9.26;100.00
73516;BME280;61763;51.416;5.442;2023-05-17T05:51:41;102567.38;;;9.31;100.00
73516;BME280;61763;51.416;5.442;2023-05-17T05:54:07;102569.78;;;9.46;100.00
73516;BME280;61763;51.416;5.442;2023-05-17T05:56:32;102572.47;;;9.50;100.00
73516;BME280;61763;51.416;5.442;2023-05-17T05:58:57;102557.81;;;9.64;100.00
73516;BME280;61763;51.416;5.442;2023-05-17T06:01:23;102561.22;;;9.73;100.00
73516;BME280;61763;51.416;5.442;2023-05-17T06:03:49;102569.00;;;9.90;100.00
73516;BME280;61763;51.416;5.442;2023-05-17T06:06:15;102568.81;;;9.99;100.00
73516;BME280;61763;51.416;5.442;2023-05-17T06:08:42;102570.19;;;10.18;100.00
73516;BME280;61763;51.416;5.442;2023-05-17T06:11:09;102573.41;;;10.38;100.00
73516;BME280;61763;51.416;5.442;2023-05-17T06:13:35;102575.47;;;10.67;100.00
73516;BME280;61763;51.416;5.442;2023-05-17T06:16:00;102568.81;;;10.82;100.00
73516;BME280;61763;51.416;5.442;2023-05-17T06:18:26;102575.13;;;10.82;100.00
73516;BME280;61763;51.416;5.442;2023-05-17T06:20:51;102574.69;;;10.99;100.00
73516;BME280;61763;51.416;5.442;2023-05-17T06:23:16;102580.97;;;11.36;100.00
73516;BME280;61763;51.416;5.442;2023-05-17T06:25:42;102581.78;;;11.74;100.00
73516;BME280;61763;51.416;5.442;2023-05-17T06:28:07;102582.81;;;12.03;100.00
73516;BME280;61763;51.416;5.442;2023-05-17T06:30:33;102585.78;;;12.25;100.00
73516;BME280;61763;51.416;5.442;2023-05-17T06:32:59;102587.94;;;12.43;100.00
73516;BME280;61763;51.416;5.442;2023-05-17T06:35:24;102577.44;;;12.01;100.00
73516;BME280;61763;51.416;5.442;2023-05-17T06:37:50;102580.28;;;12.28;100.00
73516;BME280;61763;51.416;5.442;2023-05-17T06:40:15;102580.84;;;12.08;100.00
73516;BME280;61763;51.416;5.442;2023-05-17T06:42:40;102579.31;;;11.99;100.00
73516;BME280;61763;51.416;5.442;2023-05-17T06:45:06;102587.28;;;12.04;100.00
73516;BME280;61763;51.416;5.442;2023-05-17T06:47:32;102583.56;;;12.08;100.00
73516;BME280;61763;51.416;5.442;2023-05-17T06:49:57;102586.19;;;12.11;100.00
73516;BME280;61763;51.416;5.442;2023-05-17T06:52:22;102581.97;;;12.01;100.00
73516;BME280;61763;51.416;5.442;2023-05-17T06:54:48;102585.53;;;12.01;100.00
73516;BME280;61763;51.416;5.442;2023-05-17T06:57:14;102583.66;;;12.05;100.00
73516;BME280;61763;51.416;5.442;2023-05-17T06:59:40;102588.94;;;12.09;100.00
73516;BME280;61763;51.416;5.442;2023-05-17T07:02:05;102589.09;;;12.35;100.00
73516;BME280;61763;51.416;5.442;2023-05-17T07:04:31;102582.94;;;12.59;100.00
73516;BME280;61763;51.416;5.442;2023-05-17T07:06:56;102581.75;;;12.96;97.75
73516;BME280;61763;51.416;5.442;2023-05-17T07:09:22;102582.47;;;13.30;94.71
73516;BME280;61763;51.416;5.442;2023-05-17T07:11:47;102591.03;;;13.44;92.32
73516;BME280;61763;51.416;5.442;2023-05-17T07:14:13;102585.84;;;13.37;89.34
73516;BME280;61763;51.416;5.442;2023-05-17T07:16:38;102587.28;;;13.20;87.56
73516;BME280;61763;51.416;5.442;2023-05-17T07:19:04;102594.44;;;12.96;86.82
73516;BME280;61763;51.416;5.442;2023-05-17T07:21:30;102599.84;;;12.68;85.02
73516;BME280;61763;51.416;5.442;2023-05-17T07:23:56;102601.84;;;12.31;83.83
73516;BME280;61763;51.416;5.442;2023-05-17T07:26:21;102603.88;;;11.90;85.05
73516;BME280;61763;51.416;5.442;2023-05-17T07:28:47;102609.44;;;11.85;87.66
73516;BME280;61763;51.416;5.442;2023-05-17T07:31:12;102611.09;;;11.89;87.53
73516;BME280;61763;51.416;5.442;2023-05-17T07:33:38;102618.56;;;11.81;79.48
73516;BME280;61763;51.416;5.442;2023-05-17T07:36:04;102611.53;;;11.74;81.78
73516;BME280;61763;51.416;5.442;2023-05-17T07:38:30;102616.69;;;11.83;83.25
73516;BME280;61763;51.416;5.442;2023-05-17T07:40:56;102628.19;;;11.91;81.61
73516;BME280;61763;51.416;5.442;2023-05-17T07:43:21;102610.53;;;12.11;80.09
73516;BME280;61763;51.416;5.442;2023-05-17T07:45:47;102622.66;;;11.98;80.21
73516;BME280;61763;51.416;5.442;2023-05-17T07:48:12;102616.41;;;11.96;81.73
73516;BME280;61763;51.416;5.442;2023-05-17T07:50:37;102613.06;;;12.17;79.21
73516;BME280;61763;51.416;5.442;2023-05-17T07:53:04;102626.59;;;12.49;75.06
73516;BME280;61763;51.416;5.442;2023-05-17T07:55:29;102624.94;;;12.73;72.22
73516;BME280;61763;51.416;5.442;2023-05-17T07:57:55;102623.81;;;12.52;71.70
73516;BME280;61763;51.416;5.442;2023-05-17T08:00:21;102628.13;;;12.87;69.99
73516;BME280;61763;51.416;5.442;2023-05-17T08:02:47;102633.00;;;13.04;67.69
73516;BME280;61763;51.416;5.442;2023-05-17T08:05:12;102626.22;;;13.19;64.91
73516;BME280;61763;51.416;5.442;2023-05-17T08:07:37;102622.16;;;13.59;62.33
73516;BME280;61763;51.416;5.442;2023-05-17T08:10:03;102622.41;;;14.04;62.78
73516;BME280;61763;51.416;5.442;2023-05-17T08:12:28;102621.03;;;14.41;57.85
73516;BME280;61763;51.416;5.442;2023-05-17T08:14:53;102631.78;;;14.67;56.13
73516;BME280;61763;51.416;5.442;2023-05-17T08:17:19;102632.72;;;14.90;58.08
73516;BME280;61763;51.416;5.442;2023-05-17T08:19:44;102620.22;;;15.08;57.72
73516;BME280;61763;51.416;5.442;2023-05-17T08:22:10;102620.13;;;14.87;56.26
73516;BME280;61763;51.416;5.442;2023-05-17T08:24:35;102623.06;;;15.05;56.54
73516;BME280;61763;51.416;5.442;2023-05-17T08:27:00;102624.25;;;15.20;57.29
73516;BME280;61763;51.416;5.442;2023-05-17T08:29:27;102619.75;;;15.41;56.99
73516;BME280;61763;51.416;5.442;2023-05-17T08:31:53;102623.56;;;15.15;55.20
73516;BME280;61763;51.416;5.442;2023-05-17T08:34:19;102629.75;;;14.96;55.61
73516;BME280;61763;51.416;5.442;2023-05-17T08:36:44;102629.69;;;14.98;55.84
73516;BME280;61763;51.416;5.442;2023-05-17T08:39:10;102628.13;;;15.14;56.10
73516;BME280;61763;51.416;5.442;2023-05-17T08:41:37;102631.84;;;15.12;56.84
73516;BME280;61763;51.416;5.442;2023-05-17T08:44:03;102628.91;;;14.94;54.26
73516;BME280;61763;51.416;5.442;2023-05-17T08:46:29;102632.94;;;14.84;55.64
73516;BME280;61763;51.416;5.442;2023-05-17T08:48:57;102634.53;;;14.89;54.60
73516;BME280;61763;51.416;5.442;2023-05-17T08:51:24;102621.16;;;15.07;51.63
73516;BME280;61763;51.416;5.442;2023-05-17T08:53:50;102630.03;;;15.12;48.84
73516;BME280;61763;51.416;5.442;2023-05-17T08:56:16;102630.63;;;15.41;49.01
73516;BME280;61763;51.416;5.442;2023-05-17T08:58:43;102626.19;;;16.02;50.49
73516;BME280;61763;51.416;5.442;2023-05-17T09:01:11;102623.06;;;16.51;49.29
73516;BME280;61763;51.416;5.442;2023-05-17T09:03:38;102622.28;;;16.28;45.74
73516;BME280;61763;51.416;5.442;2023-05-17T09:06:05;102634.81;;;16.32;46.07
73516;BME280;61763;51.416;5.442;2023-05-17T09:08:30;102635.81;;;15.68;44.35
73516;BME280;61763;51.416;5.442;2023-05-17T09:10:57;102638.38;;;15.07;46.36
73516;BME280;61763;51.416;5.442;2023-05-17T09:13:24;102636.25;;;14.45;48.62
73516;BME280;61763;51.416;5.442;2023-05-17T09:15:49;102643.28;;;14.27;50.63
73516;BME280;61763;51.416;5.442;2023-05-17T09:18:15;102638.88;;;14.71;48.74
73516;BME280;61763;51.416;5.442;2023-05-17T09:20:41;102633.69;;;15.11;47.28
73516;BME280;61763;51.416;5.442;2023-05-17T09:23:08;102639.63;;;15.86;46.67
73516;BME280;61763;51.416;5.442;2023-05-17T09:25:35;102628.78;;;16.63;44.96
73516;BME280;61763;51.416;5.442;2023-05-17T09:28:05;102630.81;;;16.79;45.39
73516;BME280;61763;51.416;5.442;2023-05-17T09:30:34;102630.06;;;16.75;46.50
73516;BME280;61763;51.416;5.442;2023-05-17T09:33:07;102628.81;;;16.82;41.63
73516;BME280;61763;51.416;5.442;2023-05-17T09:35:34;102616.41;;;17.13;40.65
73516;BME280;61763;51.416;5.442;2023-05-17T09:38:10;102618.72;;;17.40;42.16
73516;BME280;61763;51.416;5.442;2023-05-17T09:40:43;102627.31;;;17.50;41.70
73516;BME280;61763;51.416;5.442;2023-05-17T09:43:09;102621.00;;;17.13;43.40
73516;BME280;61763;51.416;5.442;2023-05-17T09:45:36;102616.50;;;17.66;42.39
73516;BME280;61763;51.416;5.442;2023-05-17T09:48:15;102620.16;;;17.47;43.29
73516;BME280;61763;51.416;5.442;2023-05-17T09:53:32;102623.50;;;17.17;41.68
73516;BME280;61763;51.416;5.442;2023-05-17T09:56:02;102629.63;;;17.23;41.88
73516;BME280;61763;51.416;5.442;2023-05-17T09:58:30;102626.19;;;17.37;41.94
73516;BME280;61763;51.416;5.442;2023-05-17T10:01:01;102620.38;;;17.25;40.32
73516;BME280;61763;51.416;5.442;2023-05-17T10:03:33;102625.28;;;17.19;40.72
73516;BME280;61763;51.416;5.442;2023-05-17T10:06:00;102619.59;;;17.41;40.34
73516;BME280;61763;51.416;5.442;2023-05-17T10:08:28;102623.25;;;17.22;41.01
73516;BME280;61763;51.416;5.442;2023-05-17T10:10:55;102615.38;;;17.52;40.58
73516;BME280;61763;51.416;5.442;2023-05-17T10:13:23;102617.28;;;17.85;42.44
73516;BME280;61763;51.416;5.442;2023-05-17T10:15:52;102611.38;;;18.28;38.71
73516;BME280;61763;51.416;5.442;2023-05-17T10:18:18;102633.44;;;17.90;39.80
73516;BME280;61763;51.416;5.442;2023-05-17T10:20:44;102622.44;;;17.92;39.66
73516;BME280;61763;51.416;5.442;2023-05-17T10:23:12;102617.13;;;17.54;40.52
73516;BME280;61763;51.416;5.442;2023-05-17T10:25:39;102613.59;;;17.86;41.32
73516;BME280;61763;51.416;5.442;2023-05-17T10:28:05;102615.09;;;17.40;41.12
73516;BME280;61763;51.416;5.442;2023-05-17T10:30:33;102621.34;;;17.24;41.65
73516;BME280;61763;51.416;5.442;2023-05-17T10:33:00;102620.16;;;17.82;41.58
73516;BME280;61763;51.416;5.442;2023-05-17T10:35:27;102621.22;;;18.15;38.85
73516;BME280;61763;51.416;5.442;2023-05-17T10:37:54;102617.09;;;18.24;38.41
73516;BME280;61763;51.416;5.442;2023-05-17T10:40:19;102613.75;;;17.48;38.97
73516;BME280;61763;51.416;5.442;2023-05-17T10:42:49;102613.97;;;17.26;39.88
73516;BME280;61763;51.416;5.442;2023-05-17T10:45:19;102617.75;;;17.41;40.88
73516;BME280;61763;51.416;5.442;2023-05-17T10:47:45;102612.06;;;17.63;41.21
73516;BME280;61763;51.416;5.442;2023-05-17T10:50:11;102607.66;;;17.96;39.95
73516;BME280;61763;51.416;5.442;2023-05-17T10:52:38;102614.09;;;17.77;40.55
73516;BME280;61763;51.416;5.442;2023-05-17T10:55:09;102592.88;;;17.65;46.57
73516;BME280;61763;51.416;5.442;2023-05-17T10:57:36;102594.16;;;17.93;42.88
73516;BME280;61763;51.416;5.442;2023-05-17T11:00:03;102586.38;;;17.50;40.67
73516;BME280;61763;51.416;5.442;2023-05-17T11:02:30;102588.44;;;17.80;41.26
73516;BME280;61763;51.416;5.442;2023-05-17T11:04:56;102591.84;;;18.02;38.90
73516;BME280;61763;51.416;5.442;2023-05-17T11:07:29;102583.63;;;17.85;36.92
73516;BME280;61763;51.416;5.442;2023-05-17T11:14:58;102600.41;;;18.12;39.32
73516;BME280;61763;51.416;5.442;2023-05-17T11:17:26;102588.78;;;17.91;40.98
73516;BME280;61763;51.416;5.442;2023-05-17T11:22:26;102596.88;;;17.75;42.14
73516;BME280;61763;51.416;5.442;2023-05-17T11:24:55;102592.56;;;16.99;43.94
73516;BME280;61763;51.416;5.442;2023-05-17T11:27:21;102589.53;;;16.87;44.57
73516;BME280;61763;51.416;5.442;2023-05-17T11:29:55;102591.38;;;16.48;40.09
73516;BME280;61763;51.416;5.442;2023-05-17T11:32:31;102586.97;;;16.45;40.69
73516;BME280;61763;51.416;5.442;2023-05-17T11:34:59;102589.69;;;17.03;40.72
73516;BME280;61763;51.416;5.442;2023-05-17T11:37:26;102588.28;;;17.30;39.48
73516;BME280;61763;51.416;5.442;2023-05-17T11:40:06;102581.72;;;17.52;39.05
73516;BME280;61763;51.416;5.442;2023-05-17T11:42:35;102578.50;;;17.79;40.17
73516;BME280;61763;51.416;5.442;2023-05-17T11:45:02;102576.72;;;17.78;37.54
73516;BME280;61763;51.416;5.442;2023-05-17T11:47:28;102582.03;;;17.46;39.32
73516;BME280;61763;51.416;5.442;2023-05-17T11:49:54;102583.03;;;17.62;38.82
73516;BME280;61763;51.416;5.442;2023-05-17T11:52:20;102592.25;;;16.87;39.55
73516;BME280;61763;51.416;5.442;2023-05-17T11:54:47;102584.38;;;16.80;40.16
73516;BME280;61763;51.416;5.442;2023-05-17T11:57:14;102576.81;;;17.59;38.50
73516;BME280;61763;51.416;5.442;2023-05-17T11:59:41;102586.28;;;17.86;37.47
73516;BME280;61763;51.416;5.442;2023-05-17T12:02:07;102580.81;;;17.86;37.18
73516;BME280;61763;51.416;5.442;2023-05-17T12:04:37;102583.53;;;17.86;37.85
73516;BME280;61763;51.416;5.442;2023-05-17T12:07:03;102572.88;;;17.99;37.73
73516;BME280;61763;51.416;5.442;2023-05-17T12:09:29;102570.31;;;18.46;38.21
73516;BME280;61763;51.416;5.442;2023-05-17T12:11:55;102579.28;;;18.16;37.07
73516;BME280;61763;51.416;5.442;2023-05-17T12:14:22;102574.19;;;18.26;37.98
73516;BME280;61763;51.416;5.442;2023-05-17T12:16:50;102575.41;;;18.20;37.01
73516;BME280;61763;51.416;5.442;2023-05-17T12:19:21;102571.03;;;18.49;37.63
73516;BME280;61763;51.416;5.442;2023-05-17T12:21:50;102572.19;;;17.61;37.81
73516;BME280;61763;51.416;5.442;2023-05-17T12:24:15;102570.56;;;17.39;38.40
73516;BME280;61763;51.416;5.442;2023-05-17T12:26:45;102583.88;;;17.63;37.23
73516;BME280;61763;51.416;5.442;2023-05-17T12:29:11;102577.13;;;17.88;35.75
73516;BME280;61763;51.416;5.442;2023-05-17T12:31:48;102577.66;;;17.61;36.88
73516;BME280;61763;51.416;5.442;2023-05-17T12:34:15;102573.66;;;17.84;37.51
73516;BME280;61763;51.416;5.442;2023-05-17T12:36:42;102566.59;;;17.80;34.53
73516;BME280;61763;51.416;5.442;2023-05-17T12:39:11;102567.00;;;17.72;34.03
73516;BME280;61763;51.416;5.442;2023-05-17T12:41:38;102580.22;;;17.64;33.61
73516;BME280;61763;51.416;5.442;2023-05-17T12:44:06;102580.66;;;17.72;34.64
73516;BME280;61763;51.416;5.442;2023-05-17T12:46:32;102580.38;;;17.61;35.26
73516;BME280;61763;51.416;5.442;2023-05-17T12:49:04;102572.06;;;17.97;37.28
73516;BME280;61763;51.416;5.442;2023-05-17T12:51:38;102560.09;;;17.65;35.04
73516;BME280;61763;51.416;5.442;2023-05-17T12:54:04;102573.13;;;17.95;34.79
73516;BME280;61763;51.416;5.442;2023-05-17T12:56:29;102562.84;;;17.65;34.78
73516;BME280;61763;51.416;5.442;2023-05-17T12:59:05;102562.53;;;17.71;36.28
73516;BME280;61763;51.416;5.442;2023-05-17T13:01:36;102565.47;;;17.84;36.57
73516;BME280;61763;51.416;5.442;2023-05-17T13:04:02;102558.66;;;17.58;37.33
73516;BME280;61763;51.416;5.442;2023-05-17T13:06:28;102567.50;;;17.63;36.99
73516;BME280;61763;51.416;5.442;2023-05-17T13:09:00;102553.94;;;17.79;37.68
73516;BME280;61763;51.416;5.442;2023-05-17T13:11:26;102555.16;;;18.24;38.54
73516;BME280;61763;51.416;5.442;2023-05-17T13:13:51;102563.91;;;17.62;37.87
73516;BME280;61763;51.416;5.442;2023-05-17T13:16:27;102563.41;;;17.72;35.96
73516;BME280;61763;51.416;5.442;2023-05-17T13:18:52;102554.25;;;17.90;34.52
73516;BME280;61763;51.416;5.442;2023-05-17T13:21:19;102566.06;;;17.56;35.44
73516;BME280;61763;51.416;5.442;2023-05-17T13:23:46;102555.84;;;17.77;36.10
73516;BME280;61763;51.416;5.442;2023-05-17T13:26:12;102548.84;;;17.89;35.84
73516;BME280;61763;51.416;5.442;2023-05-17T13:28:38;102555.84;;;17.94;35.83
73516;BME280;61763;51.416;5.442;2023-05-17T13:31:04;102559.13;;;17.83;32.90
73516;BME280;61763;51.416;5.442;2023-05-17T13:33:30;102552.56;;;17.88;34.85